Time;durP1;ratioP1;P1;durP2;ratioP2;P2;SDS_P1;SDS_P2;PMS_P1;PMS_P2;Temp;Humidity;BMP_temperature;BMP_pressure;BME280_temperature;BME280_humidity;BME280_pressure;Samples;Min_cycle;Max_cycle;Signal;HPM_P1;HPM_P2
2023/02/04 00:01:17;;;;;;;8.33;4.33;;;;;;;0.62;100.00;100457.61;5038073;57;1136889;-69
2023/02/04 00:06:23;;;;;;;7.08;4.30;;;;;;;0.47;100.00;100499.81;5057509;57;1137215;-67
2023/02/04 00:11:29;;;;;;;3.67;3.33;;;;;;;0.46;100.00;100540.23;5037797;57;1136752;-70
2023/02/04 00:16:34;;;;;;;7.03;4.62;;;;;;;0.41;100.00;100565.55;5037939;57;1136938;-70
2023/02/04 00:21:40;;;;;;;5.70;3.40;;;;;;;0.40;100.00;100585.96;5058054;56;1136727;-69
2023/02/04 00:26:45;;;;;;;4.63;3.20;;;;;;;0.38;100.00;100622.88;5119043;56;1136958;-68
2023/02/04 00:31:51;;;;;;;3.97;3.03;;;;;;;0.33;100.00;100652.49;5218984;55;1136862;-68
2023/02/04 00:36:57;;;;;;;3.30;2.43;;;;;;;0.31;100.00;100680.75;5239388;55;1136731;-70
2023/02/04 00:42:04;;;;;;;3.60;2.08;;;;;;;0.27;100.00;100711.69;5231723;55;1136845;-69
2023/02/04 00:47:11;;;;;;;2.67;1.90;;;;;;;0.25;100.00;100751.20;5235108;54;1136793;-70
2023/02/04 00:52:16;;;;;;;5.13;3.17;;;;;;;0.22;100.00;100776.00;5220974;55;1136855;-67
2023/02/04 00:57:23;;;;;;;4.97;2.77;;;;;;;0.13;100.00;100808.36;5199156;55;1136831;-70
2023/02/04 01:02:28;;;;;;;2.47;2.10;;;;;;;0.06;100.00;100831.52;5198909;55;1136913;-68
2023/02/04 01:07:35;;;;;;;4.08;2.30;;;;;;;0.01;100.00;100855.50;5199092;55;1136920;-70
2023/02/04 01:12:41;;;;;;;6.17;3.13;;;;;;;-0.07;100.00;100887.38;5219268;55;1137253;-70
2023/02/04 01:17:47;;;;;;;14.10;3.20;;;;;;;-0.09;100.00;100900.41;5209249;55;1138838;-71
2023/02/04 01:22:53;;;;;;;6.40;3.43;;;;;;;-0.10;100.00;100918.66;5217935;55;1141089;-70
2023/02/04 01:27:59;;;;;;;3.47;2.37;;;;;;;-0.19;100.00;100940.56;5205560;55;1138982;-68
2023/02/04 01:33:05;;;;;;;9.13;3.07;;;;;;;-0.25;100.00;100979.70;5183699;55;1138880;-69
2023/02/04 01:38:11;;;;;;;7.50;2.73;;;;;;;-0.30;100.00;101000.19;5182762;55;1139015;-69
2023/02/04 01:43:17;;;;;;;4.42;2.80;;;;;;;-0.33;100.00;101015.89;5203688;55;1138892;-69
2023/02/04 01:48:24;;;;;;;5.97;3.25;;;;;;;-0.40;100.00;101053.70;5183083;55;1138916;-70
2023/02/04 01:53:33;;;;;;;8.23;4.60;;;;;;;-0.42;100.00;101072.81;5096715;56;1138914;-67
2023/02/04 01:58:39;;;;;;;9.98;4.83;;;;;;;-0.42;100.00;101087.96;5013158;57;1138910;-67
2023/02/04 02:03:45;;;;;;;5.30;3.57;;;;;;;-0.43;100.00;101101.84;5116863;56;1139005;-67
2023/02/04 02:08:51;;;;;;;7.03;4.50;;;;;;;-0.47;100.00;101135.30;5012985;57;1138982;-70
2023/02/04 02:13:57;;;;;;;11.97;5.47;;;;;;;-0.47;100.00;101157.39;5081029;56;1138931;-68
2023/02/04 02:19:04;;;;;;;8.23;4.13;;;;;;;-0.42;100.00;101176.75;5087144;57;1140982;-67
2023/02/04 02:24:27;;;;;;;9.27;4.60;;;;;;;-0.45;100.00;101196.30;5163673;55;1147817;-68
2023/02/04 02:29:33;;;;;;;5.60;3.93;;;;;;;-0.48;100.00;101230.17;5203058;55;1138817;-67
2023/02/04 02:34:41;;;;;;;7.25;4.45;;;;;;;-0.50;100.00;101250.13;5218986;55;1139009;-69
2023/02/04 02:39:48;;;;;;;9.97;4.50;;;;;;;-0.51;100.00;101277.00;5239156;55;1138926;-69
2023/02/04 02:44:53;;;;;;;8.47;4.60;;;;;;;-0.52;100.00;101293.47;5218944;55;1138909;-69
2023/02/04 02:50:03;;;;;;;6.27;4.80;;;;;;;-0.53;100.00;101325.09;5209146;55;1138778;-68
2023/02/04 02:55:15;;;;;;;8.13;3.47;;;;;;;-0.55;100.00;101342.88;5186986;55;1141766;-69
2023/02/04 03:00:26;;;;;;;;;;;;;;;-0.56;100.00;101357.61;5202708;55;1138754;-66
2023/02/04 03:05:37;;;;;;;6.27;3.33;;;;;;;-0.56;100.00;101390.09;5218454;55;976185;-67
2023/02/04 03:10:45;;;;;;;3.97;2.80;;;;;;;-0.61;100.00;101418.35;5211876;55;1136832;-69
2023/02/04 03:15:51;;;;;;;5.57;3.60;;;;;;;-0.63;100.00;101440.90;5202269;55;1139039;-68
2023/02/04 03:20:59;;;;;;;7.27;2.97;;;;;;;-0.63;100.00;101455.19;5110358;55;1138913;-67
2023/02/04 03:26:06;;;;;;;7.50;3.30;;;;;;;-0.65;100.00;101475.13;5130291;55;1139030;-69
2023/02/04 03:31:12;;;;;;;6.40;3.30;;;;;;;-0.61;100.00;101485.42;5150796;55;1138972;-70
2023/02/04 03:36:19;;;;;;;9.93;4.37;;;;;;;-0.56;100.00;101504.41;5130637;55;1138841;-68
2023/02/04 03:41:24;;;;;;;8.87;3.50;;;;;;;-0.55;100.00;101526.05;5130412;55;1138695;-68
2023/02/04 03:46:31;;;;;;;7.83;3.27;;;;;;;-0.56;100.00;101547.27;5130339;55;1138892;-68
2023/02/04 03:51:36;;;;;;;7.10;3.43;;;;;;;-0.59;100.00;101560.30;5141287;55;1139046;-69
2023/02/04 03:56:42;;;;;;;8.97;3.53;;;;;;;-0.59;100.00;101581.09;5088053;56;1139022;-70
2023/02/04 04:01:50;;;;;;;5.97;2.60;;;;;;;-0.57;100.00;101593.63;5198933;55;1138837;-70
2023/02/04 04:06:56;;;;;;;4.97;2.87;;;;;;;-0.55;100.00;101604.85;5224880;55;1138826;-67
2023/02/04 04:12:03;;;;;;;5.83;2.73;;;;;;;-0.53;100.00;101601.80;5208135;55;1138904;-69
2023/02/04 04:17:09;;;;;;;3.77;2.60;;;;;;;-0.51;100.00;101616.93;5208307;55;1138796;-68
2023/02/04 04:22:15;;;;;;;4.53;2.58;;;;;;;-0.49;100.00;101636.40;5228866;55;1139144;-69
2023/02/04 04:27:21;;;;;;;6.23;2.70;;;;;;;-0.51;100.00;101634.26;5200789;55;1139110;-69
2023/02/04 04:32:27;;;;;;;4.20;2.93;;;;;;;-0.51;100.00;101642.91;5177074;55;1139139;-70
2023/02/04 04:37:34;;;;;;;8.60;2.43;;;;;;;-0.52;100.00;101660.68;5173427;55;1139137;-67
2023/02/04 04:42:39;;;;;;;3.17;2.43;;;;;;;-0.54;100.00;101674.56;5193502;55;1138998;-66
2023/02/04 04:47:45;;;;;;;4.37;2.00;;;;;;;-0.53;100.00;101691.88;5167806;55;1139147;-67
2023/02/04 04:52:51;;;;;;;9.13;3.27;;;;;;;-0.54;100.00;101713.10;5087907;56;1138922;-69
2023/02/04 04:57:57;;;;;;;7.13;2.63;;;;;;;-0.54;100.00;101732.59;5108670;56;1138791;-65
2023/02/04 05:03:03;;;;;;;4.33;2.45;;;;;;;-0.53;100.00;101733.45;5143238;55;1138737;-71
2023/02/04 05:08:12;;;;;;;8.83;2.80;;;;;;;-0.53;100.00;101732.16;5173370;55;1138827;-68
2023/02/04 05:13:17;;;;;;;10.03;3.67;;;;;;;-0.52;100.00;101729.54;5193610;55;1139003;-70
2023/02/04 05:18:23;;;;;;;4.62;2.62;;;;;;;-0.53;100.00;101745.14;5117647;55;1140844;-68
2023/02/04 05:23:28;;;;;;;33.47;5.77;;;;;;;-0.54;100.00;101761.17;5165357;55;1138820;-71
2023/02/04 05:28:34;;;;;;;21.52;5.30;;;;;;;-0.60;100.00;101779.86;5173046;55;1141058;-67
2023/02/04 05:33:40;;;;;;;26.17;6.03;;;;;;;-0.62;100.00;101790.73;5192829;55;1141310;-66
2023/02/04 05:38:46;;;;;;;15.20;4.03;;;;;;;-0.64;100.00;101799.84;5172707;55;1141031;-66
2023/02/04 05:43:52;;;;;;;19.07;7.33;;;;;;;-0.58;100.00;101813.18;5182320;55;1141074;-67
2023/02/04 05:48:57;;;;;;;16.43;3.10;;;;;;;-0.55;100.00;101818.35;5180746;55;1140920;-68
2023/02/04 05:54:04;;;;;;;23.80;6.25;;;;;;;-0.53;100.00;101845.19;5097758;56;1141021;-68
2023/02/04 05:59:10;;;;;;;18.00;5.50;;;;;;;-0.53;100.00;101854.28;5147603;55;1141056;-68
2023/02/04 06:04:16;;;;;;;37.90;12.03;;;;;;;-0.54;100.00;101866.84;5204212;55;1141387;-67
2023/02/04 06:09:22;;;;;;;21.03;11.03;;;;;;;-0.56;100.00;101876.39;5157586;55;1142992;-69
2023/02/04 06:14:28;;;;;;;14.27;6.03;;;;;;;-0.58;100.00;101896.33;5116196;55;1143381;-67
2023/02/04 06:19:34;;;;;;;7.57;2.93;;;;;;;-0.65;100.00;101901.17;5112536;55;1141003;-68
2023/02/04 06:24:39;;;;;;;14.60;5.17;;;;;;;-0.73;100.00;101902.09;5128233;56;1139073;-69
2023/02/04 06:29:45;;;;;;;15.60;5.60;;;;;;;-0.78;100.00;101923.38;5159770;55;1140943;-71
2023/02/04 06:34:51;;;;;;;3.93;2.17;;;;;;;-0.84;100.00;101940.73;5174688;55;1141102;-70
2023/02/04 06:39:58;;;;;;;5.67;2.17;;;;;;;-0.92;100.00;101955.52;5224923;55;1138978;-71
2023/02/04 06:45:04;;;;;;;3.47;1.90;;;;;;;-0.97;100.00;101978.91;5204177;55;1138999;-70
2023/02/04 06:50:11;;;;;;;10.50;3.40;;;;;;;-0.99;100.00;101995.38;5120597;55;1138861;-70
2023/02/04 06:55:18;;;;;;;13.23;4.00;;;;;;;-1.06;100.00;102007.08;5073859;55;1140919;-67
2023/02/04 07:00:24;;;;;;;8.43;3.67;;;;;;;-1.06;100.00;102026.99;5092226;55;1140968;-67
2023/02/04 07:05:30;;;;;;;6.30;3.02;;;;;;;-1.01;100.00;102036.92;5161527;55;1138962;-67
2023/02/04 07:10:36;;;;;;;9.90;1.73;;;;;;;-0.91;100.00;102039.88;5172713;55;1138860;-71
2023/02/04 07:15:42;;;;;;;7.27;2.53;;;;;;;-0.84;100.00;102052.41;5117174;56;1139076;-67
2023/02/04 07:20:47;;;;;;;11.07;3.50;;;;;;;-0.78;100.00;102064.94;5035700;56;1138850;-69
2023/02/04 07:25:54;;;;;;;7.60;2.77;;;;;;;-0.71;100.00;102070.94;5128887;56;1141116;-68
2023/02/04 07:31:01;;;;;;;9.87;3.93;;;;;;;-0.64;100.00;102074.37;5173856;55;1138672;-69
2023/02/04 07:36:07;;;;;;;5.97;2.67;;;;;;;-0.56;100.00;102083.83;5173603;55;1138756;-67
2023/02/04 07:41:12;;;;;;;4.00;1.97;;;;;;;-0.49;100.00;102087.27;5194095;55;1138919;-66
2023/02/04 07:46:18;;;;;;;6.83;2.87;;;;;;;-0.50;100.00;102095.49;5127405;55;1138739;-69
2023/02/04 07:51:24;;;;;;;6.35;3.22;;;;;;;-0.49;100.00;102098.52;5107687;55;1138735;-68
2023/02/04 07:56:30;;;;;;;3.35;2.47;;;;;;;-0.46;100.00;102104.14;5087974;56;1138698;-68
2023/02/04 08:01:36;;;;;;;7.27;4.27;;;;;;;-0.43;100.00;102111.45;5113716;56;1138631;-68
2023/02/04 08:06:42;;;;;;;8.00;3.60;;;;;;;-0.42;100.00;102120.11;5111430;56;1138778;-69
2023/02/04 08:11:48;;;;;;;14.93;4.70;;;;;;;-0.38;100.00;102136.13;5102878;55;1138813;-70
2023/02/04 08:16:54;;;;;;;15.67;3.37;;;;;;;-0.31;100.00;102143.45;5126755;55;1140898;-71
2023/02/04 08:22:00;;;;;;;9.80;3.30;;;;;;;-0.32;100.00;102159.92;5121249;56;1140977;-69
2023/02/04 08:27:05;;;;;;;7.37;2.40;;;;;;;-0.37;100.00;102167.74;5111474;55;1138789;-67
2023/02/04 08:32:12;;;;;;;3.90;2.60;;;;;;;-0.43;100.00;102181.63;5161172;56;1205728;-70
2023/02/04 08:37:17;;;;;;;5.42;2.55;;;;;;;-0.25;100.00;102191.49;5162618;55;1138721;-68
2023/02/04 08:42:24;;;;;;;5.73;1.93;;;;;;;-0.06;100.00;102192.67;5163536;54;1138706;-69
2023/02/04 08:47:30;;;;;;;3.52;2.33;;;;;;;0.06;100.00;102204.71;5147245;55;1139177;-68
2023/02/04 08:52:36;;;;;;;7.63;1.80;;;;;;;0.21;100.00;102206.33;5139756;55;1136778;-66
2023/02/04 08:57:42;;;;;;;5.60;2.60;;;;;;;0.33;100.00;102212.30;5103774;55;1136640;-70
2023/02/04 09:02:48;;;;;;;24.70;5.47;;;;;;;0.52;100.00;102214.75;5161711;55;1136883;-66
2023/02/04 09:07:54;;;;;;;280.10;180.93;;;;;;;0.69;100.00;102218.92;5088488;55;1138668;-69
2023/02/04 09:12:59;;;;;;;134.40;87.70;;;;;;;1.00;100.00;102219.47;5033314;54;1145084;-67
2023/02/04 09:18:13;;;;;;;46.80;28.30;;;;;;;1.21;100.00;102225.33;5080861;54;1142973;-68
2023/02/04 09:23:14;;;;;;;45.63;25.77;;;;;;;1.21;100.00;102228.80;5141416;56;1140901;-69
2023/02/04 09:28:20;;;;;;;155.37;58.40;;;;;;;1.23;100.00;102232.66;5108592;55;1140942;-67
2023/02/04 09:33:26;;;;;;;10.90;6.67;;;;;;;1.35;100.00;102238.62;5107123;55;1143016;-69
2023/02/04 09:38:32;;;;;;;13.40;5.83;;;;;;;1.40;100.00;102251.13;5100460;56;1138928;-69
2023/02/04 09:43:41;;;;;;;7.40;4.13;;;;;;;1.50;100.00;102252.34;4981805;57;1138658;-70
2023/02/04 09:48:47;;;;;;;10.40;5.60;;;;;;;1.50;100.00;102260.16;4904187;56;1136778;-72
2023/02/04 09:53:59;;;;;;;6.43;3.93;;;;;;;1.46;100.00;102265.84;5047622;56;1138755;-68
2023/02/04 09:59:14;;;;;;;8.03;2.93;;;;;;;1.48;100.00;102273.66;5043801;56;1136712;-70
2023/02/04 10:04:21;;;;;;;9.77;4.50;;;;;;;1.50;100.00;102272.77;4925366;57;1136674;-69
2023/02/04 10:09:27;;;;;;;7.57;3.87;;;;;;;1.52;100.00;102281.44;4938969;57;1136781;-69
2023/02/04 10:14:33;;;;;;;6.25;2.47;;;;;;;1.54;100.00;102271.82;5069323;55;1136853;-69
2023/02/04 10:19:39;;;;;;;8.10;4.57;;;;;;;1.57;100.00;102282.22;5027432;56;1136517;-70
2023/02/04 10:24:46;;;;;;;2.70;1.90;;;;;;;1.53;100.00;102291.42;5060067;55;1136786;-68
2023/02/04 10:30:01;;;;;;;4.80;2.70;;;;;;;1.52;100.00;102298.38;5100935;56;1136693;-68
2023/02/04 10:35:08;;;;;;;5.73;3.10;;;;;;;1.51;100.00;102309.69;5142314;56;1136789;-67
2023/02/04 10:40:33;;;;;;;4.40;2.08;;;;;;;1.50;100.00;102309.70;4959634;57;1136895;-76
2023/02/04 10:45:39;;;;;;;4.77;2.17;;;;;;;1.49;100.00;102310.14;5081714;56;1136836;-68
2023/02/04 10:50:47;;;;;;;7.47;2.93;;;;;;;1.51;100.00;102322.73;5177381;55;1136694;-69
2023/02/04 10:55:52;;;;;;;5.93;2.83;;;;;;;1.55;100.00;102320.48;5207217;55;1136559;-69
2023/02/04 11:00:58;;;;;;;9.33;4.43;;;;;;;1.56;100.00;102319.61;5186506;55;1136562;-70
2023/02/04 11:06:10;;;;;;;7.50;3.27;;;;;;;1.60;100.00;102317.39;5036237;56;1136635;-70
2023/02/04 11:11:24;;;;;;;10.40;6.47;;;;;;;1.64;100.00;102324.30;4998287;57;1136639;-70
2023/02/04 11:16:34;;;;;;;30.30;14.10;;;;;;;1.71;100.00;102327.69;5142463;55;1138894;-68
2023/02/04 11:21:44;;;;;;;14.73;5.30;;;;;;;1.70;100.00;102335.95;5167736;54;1140989;-69
2023/02/04 11:26:53;;;;;;;10.53;4.33;;;;;;;1.71;100.00;102340.73;5151030;56;1138693;-70
2023/02/04 11:32:07;;;;;;;14.43;6.47;;;;;;;1.58;100.00;102353.05;5139444;55;1138784;-70
2023/02/04 11:37:21;;;;;;;21.27;9.93;;;;;;;1.45;100.00;102355.81;5130697;56;1138669;-69
2023/02/04 11:42:39;;;;;;;13.03;5.12;;;;;;;1.55;100.00;102363.51;5130304;55;1138860;-69
2023/02/04 11:47:45;;;;;;;6.83;4.10;;;;;;;1.70;100.00;102365.94;5078182;56;1138818;-68
2023/02/04 11:52:54;;;;;;;5.80;3.20;;;;;;;1.63;100.00;102356.48;5125215;56;1136766;-67
2023/02/04 11:58:00;;;;;;;18.67;8.13;;;;;;;1.65;100.00;102366.45;5126433;55;1136815;-72
2023/02/04 12:03:10;;;;;;;17.83;8.60;;;;;;;1.93;100.00;102357.00;5146849;56;1138685;-71
2023/02/04 12:08:35;;;;;;;16.97;6.50;;;;;;;2.26;100.00;102354.39;5063194;56;1138735;-69
2023/02/04 12:13:51;;;;;;;15.43;6.83;;;;;;;2.51;100.00;102363.58;5043977;56;1138747;-67
2023/02/04 12:18:56;;;;;;;18.70;7.90;;;;;;;2.69;100.00;102363.75;5046966;56;1138658;-65
2023/02/04 12:24:02;;;;;;;16.57;7.03;;;;;;;2.57;100.00;102373.09;5049459;57;1138837;-66
2023/02/04 12:29:08;;;;;;;4.77;1.70;;;;;;;2.26;100.00;102389.63;5057444;56;1138735;-68
2023/02/04 12:34:16;;;;;;;27.93;7.73;;;;;;;1.75;100.00;102403.28;5099023;56;1136683;-69
2023/02/04 12:39:21;;;;;;;25.80;11.70;;;;;;;1.50;100.00;102410.09;5095037;56;1138808;-70
2023/02/04 12:44:27;;;;;;;16.27;7.53;;;;;;;1.30;100.00;102411.57;5127224;55;1140943;-67
2023/02/04 12:49:33;;;;;;;44.97;15.40;;;;;;;1.20;100.00;102419.05;5127013;56;1138841;-69
2023/02/04 12:54:39;;;;;;;18.57;6.45;;;;;;;1.10;100.00;102435.19;4903985;58;1140853;-66
2023/02/04 12:59:45;;;;;;;48.20;12.00;;;;;;;1.02;100.00;102433.95;4898441;59;1138787;-71
2023/02/04 13:04:52;;;;;;;60.80;20.17;;;;;;;1.02;100.00;102433.95;5037059;57;1141025;-68
2023/02/04 13:09:58;;;;;;;41.47;16.90;;;;;;;0.99;100.00;102434.41;5037049;57;1141078;-70
2023/02/04 13:15:05;;;;;;;67.40;33.57;;;;;;;0.96;100.00;102446.15;5056830;57;1140768;-69
2023/02/04 13:20:12;;;;;;;1052.47;558.90;;;;;;;1.00;100.00;102452.64;5036719;56;1140755;-69
2023/02/04 13:25:18;;;;;;;705.87;302.07;;;;;;;0.99;100.00;102448.73;5073943;56;1147112;-68
2023/02/04 13:30:24;;;;;;;382.25;109.80;;;;;;;0.97;100.00;102451.79;4979945;58;1145119;-67
2023/02/04 13:35:30;;;;;;;800.40;255.98;;;;;;;0.79;100.00;102454.51;4981137;57;1145139;-68
2023/02/04 13:40:38;;;;;;;1075.40;511.28;;;;;;;0.68;100.00;102465.00;5038022;56;1145076;-70
2023/02/04 13:45:46;;;;;;;61.70;42.43;;;;;;;0.67;100.00;102465.44;5065657;57;1147281;-71
2023/02/04 13:50:51;;;;;;;5.43;2.17;;;;;;;0.60;100.00;102474.61;5059588;56;1140881;-69
2023/02/04 13:55:57;;;;;;;2.98;1.85;;;;;;;0.58;100.00;102482.86;4954856;57;1136639;-66
2023/02/04 14:01:03;;;;;;;6.20;2.67;;;;;;;0.55;100.00;102477.66;4959568;57;1136893;-69
2023/02/04 14:06:09;;;;;;;12.83;7.10;;;;;;;0.55;100.00;102482.87;5009420;57;1136650;-67
2023/02/04 14:11:15;;;;;;;8.57;3.67;;;;;;;0.53;100.00;102478.09;5013953;57;1138769;-68
2023/02/04 14:16:21;;;;;;;19.37;5.70;;;;;;;0.57;100.00;102478.52;5039885;56;1138343;-68
2023/02/04 14:21:26;;;;;;;8.35;3.42;;;;;;;0.60;100.00;102478.08;5038554;56;1138764;-68
2023/02/04 14:26:32;;;;;;;17.47;6.13;;;;;;;0.62;100.00;102478.91;5038386;56;1136646;-66
2023/02/04 14:31:38;;;;;;;21.23;6.33;;;;;;;0.65;100.00;102484.11;5039070;56;1138976;-66
2023/02/04 14:36:44;;;;;;;14.27;4.43;;;;;;;0.68;100.00;102497.55;5057597;56;1138762;-71
2023/02/04 14:41:50;;;;;;;14.20;4.87;;;;;;;0.62;100.00;102514.48;5037894;56;1138811;-65
2023/02/04 14:46:55;;;;;;;8.00;3.03;;;;;;;0.35;100.00;102516.34;5024337;56;1138934;-69
2023/02/04 14:52:03;;;;;;;4.60;1.90;;;;;;;0.10;100.00;102508.19;5041600;56;1136586;-68
2023/02/04 14:57:12;;;;;;;5.73;3.90;;;;;;;-0.08;100.00;102512.13;5058635;56;1136704;-71
2023/02/04 15:02:19;;;;;;;5.73;3.10;;;;;;;-0.15;100.00;102513.86;5096559;56;1138686;-66
2023/02/04 15:07:26;;;;;;;23.82;5.34;;;;;;;-0.19;100.00;102517.36;5046553;56;1138630;-69
2023/02/04 15:12:32;;;;;;;30.92;9.70;;;;;;;-0.21;100.00;102515.19;5040822;57;1140849;-67
2023/02/04 15:17:38;;;;;;;29.67;9.33;;;;;;;-0.16;100.00;102517.36;5041500;57;1140771;-67
2023/02/04 15:22:44;;;;;;;26.30;9.13;;;;;;;-0.05;100.00;102521.23;5060133;57;1141003;-70
2023/02/04 15:27:50;;;;;;;31.10;10.10;;;;;;;0.02;100.00;102529.88;5007992;57;1140911;-70
2023/02/04 15:32:56;;;;;;;48.10;17.57;;;;;;;0.05;100.00;102534.64;5034326;57;1140873;-66
2023/02/04 15:38:02;;;;;;;20.03;7.77;;;;;;;0.05;100.00;102533.78;5054359;57;1140832;-66
2023/02/04 15:43:08;;;;;;;15.53;5.70;;;;;;;0.07;100.00;102544.61;5040155;57;1138841;-66
2023/02/04 15:48:14;;;;;;;61.97;21.80;;;;;;;0.13;100.00;102552.42;5040611;57;1138704;-68
2023/02/04 15:53:21;;;;;;;247.22;69.75;;;;;;;0.17;100.00;102559.33;5022869;57;1141110;-69
2023/02/04 15:58:26;;;;;;;434.80;129.13;;;;;;;0.20;100.00;102564.97;5047108;56;1142882;-67
2023/02/04 16:03:33;;;;;;;529.42;165.12;;;;;;;0.18;100.00;102578.41;5108030;55;1145063;-69
2023/02/04 16:08:39;;;;;;;489.75;158.82;;;;;;;0.06;100.00;102579.73;5146836;55;1144959;-70
2023/02/04 16:13:45;;;;;;;41.00;18.30;;;;;;;0.00;100.00;102584.06;5103304;55;1144986;-69
2023/02/04 16:18:51;;;;;;;33.60;18.50;;;;;;;-0.04;100.00;102595.80;5089894;55;1140827;-70
2023/02/04 16:23:57;;;;;;;109.17;63.07;;;;;;;-0.08;100.00;102600.56;5117595;55;1142959;-68
2023/02/04 16:29:03;;;;;;;130.40;71.90;;;;;;;-0.14;100.00;102607.91;5195197;55;1144956;-69
2023/02/04 16:34:09;;;;;;;379.50;119.50;;;;;;;-0.17;100.00;102618.78;5157007;55;1144995;-71
2023/02/04 16:39:15;;;;;;;356.73;108.73;;;;;;;-0.19;100.00;102621.80;5140180;55;1147121;-69
2023/02/04 16:44:21;;;;;;;510.37;246.60;;;;;;;-0.21;100.00;102624.40;5197271;55;1147064;-70
2023/02/04 16:49:27;;;;;;;480.37;164.67;;;;;;;-0.22;100.00;102619.20;5157352;55;1147097;-70
2023/02/04 16:54:34;;;;;;;122.25;45.48;;;;;;;-0.30;100.00;102624.38;5131677;55;1147326;-68
2023/02/04 16:59:40;;;;;;;48.17;15.47;;;;;;;-0.34;100.00;102630.47;4997584;56;1145106;-69
2023/02/04 17:04:46;;;;;;;39.80;12.77;;;;;;;-0.34;100.00;102624.39;4977974;56;1143103;-68
2023/02/04 17:09:52;;;;;;;31.33;10.80;;;;;;;-0.38;100.00;102643.87;4880718;57;1143094;-68
2023/02/04 17:14:58;;;;;;;33.27;9.37;;;;;;;-0.43;100.00;102643.00;4905729;58;1142875;-66
2023/02/04 17:20:04;;;;;;;16.87;7.40;;;;;;;-0.49;100.00;102651.23;5007266;57;1140835;-73
2023/02/04 17:25:09;;;;;;;15.90;6.03;;;;;;;-0.53;100.00;102664.64;5066528;56;1140895;-69
2023/02/04 17:30:15;;;;;;;15.87;5.33;;;;;;;-0.52;100.00;102666.38;5131564;56;1140975;-67
2023/02/04 17:35:22;;;;;;;11.63;4.72;;;;;;;-0.55;100.00;102672.00;5131081;56;1140858;-69
2023/02/04 17:40:29;;;;;;;17.23;7.53;;;;;;;-0.64;100.00;102675.88;5086377;56;1140897;-68
2023/02/04 17:45:35;;;;;;;74.23;26.77;;;;;;;-0.69;100.00;102678.89;5025221;56;1141021;-70
2023/02/04 17:50:41;;;;;;;17.53;6.20;;;;;;;-0.77;100.00;102684.07;5108150;56;1142925;-68
2023/02/04 17:55:47;;;;;;;14.73;4.47;;;;;;;-0.81;100.00;102683.61;5081579;56;1140730;-70
2023/02/04 18:00:56;;;;;;;16.47;6.10;;;;;;;-0.85;100.00;102686.63;5040505;56;1140940;-68
2023/02/04 18:06:12;;;;;;;11.80;5.23;;;;;;;-0.92;100.00;102677.09;5058950;56;1140904;-68
2023/02/04 18:11:31;;;;;;;15.25;5.75;;;;;;;-0.96;100.00;102683.55;5076506;55;1141030;-69
2023/02/04 18:16:37;;;;;;;29.98;11.83;;;;;;;-0.99;100.00;102691.32;5158495;55;1140955;-69
2023/02/04 18:21:43;;;;;;;7.65;3.45;;;;;;;-0.99;100.00;102692.19;5153704;55;1143090;-70
2023/02/04 18:26:55;;;;;;;6.93;3.53;;;;;;;-1.08;100.00;102687.84;5109064;55;1138693;-70
2023/02/04 18:32:04;;;;;;;7.73;3.33;;;;;;;-1.14;100.00;102694.70;5040719;57;1138811;-69
2023/02/04 18:37:34;;;;;;;10.50;4.73;;;;;;;-1.07;100.00;102695.20;5065502;56;1138817;-67
2023/02/04 18:42:44;;;;;;;14.00;4.57;;;;;;;-1.03;100.00;102695.63;4964776;56;1140823;-67
2023/02/04 18:47:56;;;;;;;456.93;184.90;;;;;;;-0.98;100.00;102704.31;5167358;55;1140781;-67
2023/02/04 18:53:14;;;;;;;59.20;33.30;;;;;;;-1.07;100.00;102706.42;5050546;56;1147273;-70
2023/02/04 18:58:40;;;;;;;570.47;227.87;;;;;;;-1.04;100.00;102703.41;5045490;56;1143052;-67
2023/02/04 19:03:59;;;;;;;376.50;107.47;;;;;;;-1.03;100.00;102694.75;5100513;56;1147248;-66
2023/02/04 19:09:23;;;;;;;249.07;78.57;;;;;;;-1.10;100.00;102697.34;5123060;55;1147144;-67
2023/02/04 19:14:42;;;;;;;381.83;110.80;;;;;;;-1.17;100.00;102696.86;5092581;55;1144960;-69
2023/02/04 19:20:07;;;;;;;61.77;26.13;;;;;;;-1.14;100.00;102698.17;5130078;55;1147104;-70
2023/02/04 19:25:28;;;;;;;104.03;47.07;;;;;;;-1.21;100.00;102700.28;5164202;55;1142775;-70
2023/02/04 19:30:41;;;;;;;10.55;4.10;;;;;;;-1.18;100.00;102712.42;5086960;55;1144997;-67
2023/02/04 19:35:48;;;;;;;11.30;5.73;;;;;;;-1.15;100.00;102721.53;5110816;55;1141006;-69
2023/02/04 19:40:54;;;;;;;29.10;10.45;;;;;;;-1.19;100.00;102716.74;5166019;55;1140817;-68
2023/02/04 19:46:00;;;;;;;175.97;48.80;;;;;;;-1.13;100.00;102725.01;5109312;56;1143094;-69
2023/02/04 19:51:27;;;;;;;45.53;21.13;;;;;;;-1.14;100.00;102723.27;5161020;54;1145022;-67
2023/02/04 19:56:39;;;;;;;23.60;12.10;;;;;;;-1.25;100.00;102723.22;5106927;55;1143006;-68
2023/02/04 20:01:44;;;;;;;65.03;32.87;;;;;;;-1.25;100.00;102722.34;5150104;55;1142966;-69
2023/02/04 20:06:50;;;;;;;21.03;8.23;;;;;;;-1.32;100.00;102722.72;5107643;55;1142832;-67
2023/02/04 20:12:06;;;;;;;11.87;5.50;;;;;;;-1.36;100.00;102722.68;5095513;55;1140818;-69
2023/02/04 20:17:21;;;;;;;21.95;7.85;;;;;;;-1.35;100.00;102719.23;5112174;55;1140913;-69
2023/02/04 20:22:40;;;;;;;19.13;8.63;;;;;;;-1.39;100.00;102722.69;5098537;55;1140980;-70
2023/02/04 20:27:48;;;;;;;12.50;6.23;;;;;;;-1.44;100.00;102724.81;5127266;55;1140706;-68
2023/02/04 20:32:59;;;;;;;9.90;3.87;;;;;;;-1.43;100.00;102716.17;5152991;55;1140778;-71
2023/02/04 20:38:17;;;;;;;15.43;6.67;;;;;;;-1.50;100.00;102713.50;5117348;56;1138720;-69
2023/02/04 20:43:23;;;;;;;50.60;11.07;;;;;;;-1.49;100.00;102737.30;5048876;56;1140681;-69
2023/02/04 20:48:35;;;;;;;14.47;5.70;;;;;;;-1.42;100.00;102739.97;5106617;55;1143066;-69
2023/02/04 20:53:51;;;;;;;26.23;8.70;;;;;;;-1.34;100.00;102734.81;5056235;55;1140844;-67
2023/02/04 20:59:29;;;;;;;21.13;7.17;;;;;;;-1.28;100.00;102743.09;5199649;55;1140900;-69
2023/02/04 21:04:50;;;;;;;15.90;4.93;;;;;;;-1.28;100.00;102747.84;5126835;55;1141090;-68
2023/02/04 21:09:48;;;;;;;26.77;10.57;;;;;;;-1.28;100.00;102756.06;5123747;55;1140861;-69
2023/02/04 21:14:54;;;;;;;16.47;9.03;;;;;;;-1.27;100.00;102759.97;5131962;55;1142895;-70
2023/02/04 21:20:00;;;;;;;27.50;9.63;;;;;;;-1.24;100.00;102761.30;5128804;55;1140948;-68
2023/02/04 21:25:07;;;;;;;35.67;16.27;;;;;;;-1.21;100.00;102763.89;5113943;55;1140764;-69
2023/02/04 21:30:15;;;;;;;29.17;9.73;;;;;;;-1.13;100.00;102770.45;5142837;55;1142839;-67
2023/02/04 21:35:23;;;;;;;17.73;8.67;;;;;;;-1.13;100.00;102770.45;5128261;55;1140784;-66
2023/02/04 21:40:28;;;;;;;24.27;8.00;;;;;;;-1.13;100.00;102771.75;5137110;55;1140758;-69
2023/02/04 21:45:36;;;;;;;54.90;23.22;;;;;;;-1.17;100.00;102781.23;5126381;55;1140862;-66
2023/02/04 21:50:42;;;;;;;18.83;6.80;;;;;;;-1.13;100.00;102788.63;4994194;56;1142867;-67
2023/02/04 21:55:50;;;;;;;21.30;8.63;;;;;;;-1.11;100.00;102789.08;5129635;55;1140812;-70
2023/02/04 22:00:55;;;;;;;34.00;14.37;;;;;;;-1.12;100.00;102786.47;5098974;56;1140921;-67
2023/02/04 22:06:01;;;;;;;17.97;6.90;;;;;;;-1.12;100.00;102792.96;5102260;55;1143062;-67
2023/02/04 22:11:07;;;;;;;21.90;8.63;;;;;;;-1.17;100.00;102800.70;5182733;55;1147325;-68
2023/02/04 22:16:12;;;;;;;19.77;6.40;;;;;;;-1.17;100.00;102815.41;5140279;55;1228059;-68
2023/02/04 22:21:18;;;;;;;11.80;4.33;;;;;;;-1.15;100.00;102822.36;5151487;55;1140869;-65
2023/02/04 22:26:24;;;;;;;9.60;4.73;;;;;;;-1.14;100.00;102830.59;5131739;55;1140736;-67
2023/02/04 22:31:30;;;;;;;9.40;3.80;;;;;;;-1.14;100.00;102830.59;5132604;55;1138955;-70
2023/02/04 22:36:36;;;;;;;16.54;6.08;;;;;;;-1.16;100.00;102827.11;5132642;55;1138796;-66
2023/02/04 22:41:41;;;;;;;9.08;3.95;;;;;;;-1.20;100.00;102824.05;5152261;55;1141107;-68
2023/02/04 22:46:48;;;;;;;19.83;8.50;;;;;;;-1.23;100.00;102831.84;5132092;55;1138816;-66
2023/02/04 22:51:53;;;;;;;20.27;6.50;;;;;;;-1.24;100.00;102841.78;5071941;55;1236933;-67